createdAt,value
2023-01-23T00:01:09.908Z,1.60
2023-01-23T00:03:36.328Z,1.59
2023-01-23T00:06:06.021Z,1.48
2023-01-23T00:08:33.133Z,1.55
2023-01-23T00:11:06.501Z,1.51
2023-01-23T00:13:33.903Z,1.58
2023-01-23T00:16:04.254Z,1.52
2023-01-23T00:18:30.741Z,1.63
2023-01-23T00:20:58.389Z,1.63
2023-01-23T00:23:24.796Z,1.65
2023-01-23T00:25:51.232Z,1.56
2023-01-23T00:28:18.283Z,1.56
2023-01-23T00:30:44.948Z,1.63
2023-01-23T00:33:11.419Z,1.62
2023-01-23T00:35:37.822Z,1.66
2023-01-23T00:38:04.264Z,1.63
2023-01-23T00:40:30.739Z,1.69
2023-01-23T00:42:57.171Z,1.64
2023-01-23T00:45:23.556Z,1.69
2023-01-23T00:47:50.042Z,1.67
2023-01-23T00:50:16.759Z,1.66
2023-01-23T00:52:43.177Z,1.58
2023-01-23T00:55:10.096Z,1.52
2023-01-23T00:57:36.534Z,1.62
2023-01-23T01:00:04.330Z,1.66
2023-01-23T01:02:30.788Z,1.66
2023-01-23T01:04:57.434Z,1.64
2023-01-23T01:07:24.415Z,1.60
2023-01-23T01:09:50.864Z,1.66
2023-01-23T01:12:17.574Z,1.62
2023-01-23T01:14:43.964Z,1.68
2023-01-23T01:17:10.385Z,1.54
2023-01-23T01:19:36.852Z,1.62
2023-01-23T01:22:03.640Z,1.63
2023-01-23T01:24:30.017Z,1.65
2023-01-23T01:26:56.488Z,1.66
2023-01-23T01:29:23.136Z,1.68
2023-01-23T01:31:49.559Z,1.67
2023-01-23T01:34:16.171Z,1.69
2023-01-23T01:36:42.609Z,1.70
2023-01-23T01:39:09.048Z,1.72
2023-01-23T01:41:35.824Z,1.64
2023-01-23T01:44:02.607Z,1.61
2023-01-23T01:46:30.861Z,1.66
2023-01-23T01:49:09.759Z,1.66
2023-01-23T01:51:44.637Z,1.67
2023-01-23T01:54:37.344Z,1.67
2023-01-23T01:57:22.084Z,1.65
2023-01-23T02:00:00.571Z,1.63
2023-01-23T02:02:33.513Z,1.62
2023-01-23T02:05:03.326Z,1.65
2023-01-23T02:07:37.469Z,1.56
2023-01-23T02:10:06.377Z,1.59
2023-01-23T02:12:34.967Z,1.60
2023-01-23T02:15:04.320Z,1.60
2023-01-23T02:17:30.809Z,1.57
2023-01-23T02:19:59.513Z,1.62
2023-01-23T02:22:32.109Z,1.61
2023-01-23T02:25:31.561Z,1.62
2023-01-23T02:27:58.240Z,1.58
2023-01-23T02:30:24.709Z,1.56
2023-01-23T02:32:51.103Z,1.52
2023-01-23T02:35:28.113Z,1.55
2023-01-23T02:37:56.343Z,1.58
2023-01-23T02:40:33.990Z,1.52
2023-01-23T02:43:00.418Z,1.59
2023-01-23T02:45:27.426Z,1.62
2023-01-23T02:47:53.908Z,1.60
2023-01-23T02:50:20.537Z,1.53
2023-01-23T02:52:47.222Z,1.55
2023-01-23T02:55:13.857Z,1.61
2023-01-23T02:57:40.266Z,1.60
2023-01-23T03:00:16.075Z,1.62
2023-01-23T03:02:43.576Z,1.60
2023-01-23T03:05:10.258Z,1.61
2023-01-23T03:07:36.780Z,1.56
2023-01-23T03:10:04.335Z,1.55
2023-01-23T03:12:30.813Z,1.52
2023-01-23T03:14:58.615Z,1.63
2023-01-23T03:17:25.456Z,1.56
2023-01-23T03:19:52.218Z,1.53
2023-01-23T03:22:18.706Z,1.52
2023-01-23T03:24:45.174Z,1.60
2023-01-23T03:27:11.635Z,1.55
2023-01-23T03:29:56.700Z,1.63
2023-01-23T03:32:23.216Z,1.63
2023-01-23T03:34:49.632Z,1.56
2023-01-23T03:37:17.509Z,1.50
2023-01-23T03:40:02.589Z,1.50
2023-01-23T03:42:29.050Z,1.55
2023-01-23T03:44:55.489Z,1.49
2023-01-23T03:47:21.999Z,1.56
2023-01-23T03:49:48.601Z,1.51
2023-01-23T03:52:15.027Z,1.50
2023-01-23T03:54:42.146Z,1.49
2023-01-23T03:57:08.620Z,1.58
2023-01-23T03:59:35.062Z,1.57
2023-01-23T04:02:04.774Z,1.51
2023-01-23T04:04:32.381Z,1.56
2023-01-23T04:06:58.950Z,1.53
2023-01-23T04:09:27.823Z,1.58
2023-01-23T04:11:55.524Z,1.57
2023-01-23T04:14:23.146Z,1.59
2023-01-23T04:16:49.668Z,1.58
2023-01-23T04:19:19.616Z,1.66
2023-01-23T04:21:47.200Z,1.61
2023-01-23T04:24:13.629Z,1.68
2023-01-23T04:26:40.073Z,1.72
2023-01-23T04:29:06.531Z,1.69
2023-01-23T04:31:33.242Z,1.66
2023-01-23T04:33:59.680Z,1.64
2023-01-23T04:36:26.086Z,1.61
2023-01-23T04:38:52.479Z,1.62
2023-01-23T04:41:24.111Z,1.60
2023-01-23T04:43:50.586Z,1.58
2023-01-23T04:46:17.070Z,1.60
2023-01-23T04:48:43.529Z,1.55
2023-01-23T04:51:10.216Z,1.58
2023-01-23T04:53:36.760Z,1.59
2023-01-23T04:56:03.900Z,1.62
2023-01-23T04:58:30.736Z,1.58
2023-01-23T05:01:05.082Z,1.57
2023-01-23T05:03:32.793Z,1.53
2023-01-23T05:05:59.181Z,1.57
2023-01-23T05:08:25.565Z,1.61
2023-01-23T05:10:51.991Z,1.52
2023-01-23T05:13:18.467Z,1.58
2023-01-23T05:15:44.969Z,1.57
2023-01-23T05:18:11.382Z,1.62
2023-01-23T05:20:38.155Z,1.53
2023-01-23T05:23:04.588Z,1.57
2023-01-23T05:25:31.033Z,1.55
2023-01-23T05:27:57.474Z,1.51
2023-01-23T05:30:23.974Z,1.49
2023-01-23T05:32:50.540Z,1.57
2023-01-23T05:35:17.206Z,1.53
2023-01-23T05:37:43.865Z,1.53
2023-01-23T05:40:11.724Z,1.57
2023-01-23T05:42:38.117Z,1.58
2023-01-23T05:45:05.224Z,1.65
2023-01-23T05:47:31.702Z,1.67
2023-01-23T05:49:58.158Z,1.61
2023-01-23T05:52:24.675Z,1.63
2023-01-23T05:54:51.072Z,1.66
2023-01-23T05:57:17.688Z,1.58
2023-01-23T05:59:44.430Z,1.53
2023-01-23T06:02:11.211Z,1.48
2023-01-23T06:04:37.653Z,1.55
2023-01-23T06:07:04.116Z,1.50
2023-01-23T06:09:30.557Z,1.56
2023-01-23T06:11:56.976Z,1.52
2023-01-23T06:14:23.395Z,1.57
2023-01-23T06:16:49.780Z,1.55
2023-01-23T06:19:16.181Z,1.51
2023-01-23T06:21:42.610Z,1.45
2023-01-23T06:24:09.043Z,1.47
2023-01-23T06:26:35.515Z,1.39
2023-01-23T06:29:01.935Z,1.41
2023-01-23T06:31:30.395Z,1.39
2023-01-23T06:33:56.939Z,1.38
2023-01-23T06:36:23.452Z,1.41
2023-01-23T06:38:50.028Z,1.41
2023-01-23T06:41:18.305Z,1.45
2023-01-23T06:43:46.146Z,1.49
2023-01-23T06:46:12.671Z,1.46
2023-01-23T06:48:39.287Z,1.41
2023-01-23T06:51:06.533Z,1.36
2023-01-23T06:53:33.097Z,1.35
2023-01-23T06:56:05.031Z,1.41
2023-01-23T06:58:32.245Z,1.42
2023-01-23T07:00:58.985Z,1.39
2023-01-23T07:03:25.437Z,1.36
2023-01-23T07:05:52.224Z,1.33
2023-01-23T07:08:18.678Z,1.35
2023-01-23T07:10:45.052Z,1.39
2023-01-23T07:13:11.926Z,1.29
2023-01-23T07:15:40.926Z,1.32
2023-01-23T07:18:07.644Z,1.28
2023-01-23T07:20:34.103Z,1.34
2023-01-23T07:23:00.528Z,1.29
2023-01-23T07:25:27.000Z,1.33
2023-01-23T07:27:53.427Z,1.39
2023-01-23T07:30:20.321Z,1.36
2023-01-23T07:32:46.840Z,1.41
2023-01-23T07:35:13.577Z,1.41
2023-01-23T07:37:39.940Z,1.37
2023-01-23T07:40:06.704Z,1.39
2023-01-23T07:42:33.137Z,1.36
2023-01-23T07:44:59.612Z,1.42
2023-01-23T07:47:26.015Z,1.42
2023-01-23T07:49:52.537Z,1.42
2023-01-23T07:52:19.108Z,1.47
2023-01-23T07:54:45.494Z,1.51
2023-01-23T07:57:12.018Z,1.53
2023-01-23T07:59:38.576Z,1.52
2023-01-23T08:02:05.026Z,1.47
2023-01-23T08:04:31.462Z,1.53
2023-01-23T08:06:57.896Z,1.46
2023-01-23T08:09:24.303Z,1.47
2023-01-23T08:11:52.416Z,1.49
2023-01-23T08:14:19.337Z,1.49
2023-01-23T08:16:49.539Z,1.56
2023-01-23T08:19:16.184Z,1.52
2023-01-23T08:21:42.811Z,1.55
2023-01-23T08:24:11.207Z,1.59
2023-01-23T08:26:37.616Z,1.55
2023-01-23T08:29:04.197Z,1.50
2023-01-23T08:31:30.787Z,1.55
2023-01-23T08:33:57.373Z,1.56
2023-01-23T08:36:23.828Z,1.57
2023-01-23T08:38:50.260Z,1.59
2023-01-23T08:41:16.771Z,1.65
2023-01-23T08:43:43.354Z,1.60
2023-01-23T08:46:10.610Z,1.60
2023-01-23T08:48:37.536Z,1.60
2023-01-23T08:51:06.490Z,1.62
2023-01-23T08:53:33.484Z,1.60
2023-01-23T08:56:05.295Z,1.62
2023-01-23T08:58:31.890Z,1.69
2023-01-23T09:00:58.512Z,1.64
2023-01-23T09:03:25.121Z,1.64
2023-01-23T09:05:51.600Z,1.66
2023-01-23T09:08:18.167Z,1.68
2023-01-23T09:10:44.669Z,1.73
2023-01-23T09:13:11.562Z,1.72
2023-01-23T09:15:39.413Z,1.73
2023-01-23T09:18:06.290Z,1.81
2023-01-23T09:20:33.029Z,1.85
2023-01-23T09:22:59.516Z,1.94
2023-01-23T09:25:25.924Z,1.94
2023-01-23T09:27:52.312Z,2.02
2023-01-23T09:30:19.016Z,2.03
2023-01-23T09:32:45.662Z,1.99
2023-01-23T09:35:12.075Z,1.98
2023-01-23T09:38:00.076Z,2.03
2023-01-23T09:40:32.504Z,2.08
2023-01-23T09:43:03.383Z,2.15
2023-01-23T09:45:30.406Z,2.11
2023-01-23T09:48:15.601Z,2.05
2023-01-23T09:50:55.410Z,2.03
2023-01-23T09:53:23.995Z,2.16
2023-01-23T09:56:00.539Z,2.15
2023-01-23T09:58:58.406Z,2.12
2023-01-23T10:01:26.673Z,2.17
2023-01-23T10:03:53.102Z,2.21
2023-01-23T10:06:25.758Z,2.24
2023-01-23T10:09:30.613Z,2.26
2023-01-23T10:12:18.399Z,2.25
2023-01-23T10:14:47.761Z,2.27
2023-01-23T10:17:14.139Z,2.27
2023-01-23T10:19:43.331Z,2.19
2023-01-23T10:23:05.598Z,2.30
2023-01-23T10:25:37.527Z,2.21
2023-01-23T10:28:24.011Z,2.23
2023-01-23T10:30:53.778Z,2.27
2023-01-23T10:33:20.483Z,2.23
2023-01-23T10:35:50.648Z,2.18
2023-01-23T10:38:26.955Z,2.26
2023-01-23T10:41:11.932Z,2.25
2023-01-23T10:43:38.718Z,2.30
2023-01-23T10:46:15.632Z,2.29
2023-01-23T10:48:44.878Z,2.36
2023-01-23T10:51:33.014Z,2.31
2023-01-23T10:54:11.450Z,2.30
2023-01-23T10:56:46.611Z,2.34
2023-01-23T10:59:20.828Z,2.44
2023-01-23T11:02:16.119Z,2.36
2023-01-23T11:04:44.820Z,2.41
2023-01-23T11:07:16.529Z,2.33
2023-01-23T11:10:01.199Z,2.34
2023-01-23T11:12:32.557Z,2.34
2023-01-23T11:15:36.493Z,2.36
2023-01-23T11:18:25.157Z,2.36
2023-01-23T11:20:55.667Z,2.35
2023-01-23T11:23:22.289Z,2.28
2023-01-23T11:25:50.545Z,2.25
2023-01-23T11:28:23.712Z,2.37
2023-01-23T11:31:12.307Z,2.32
2023-01-23T11:33:47.847Z,2.29
2023-01-23T11:36:17.038Z,2.21
2023-01-23T11:38:52.508Z,2.27
2023-01-23T11:41:20.441Z,2.39
2023-01-23T11:43:46.864Z,2.35
2023-01-23T11:46:42.868Z,2.34
2023-01-23T11:49:24.624Z,2.34
2023-01-23T11:52:11.984Z,2.32
2023-01-23T11:54:58.392Z,2.32
2023-01-23T11:57:44.045Z,2.32
2023-01-23T12:00:22.539Z,2.25
2023-01-23T12:03:04.637Z,2.35
2023-01-23T12:05:46.261Z,2.25
2023-01-23T12:08:24.933Z,2.26
2023-01-23T12:11:10.697Z,2.32
2023-01-23T12:14:22.583Z,2.18
2023-01-23T12:17:09.053Z,2.24
2023-01-23T12:20:11.945Z,2.22
2023-01-23T12:22:49.937Z,2.26
2023-01-23T12:25:19.736Z,2.27
2023-01-23T12:27:48.935Z,2.24
2023-01-23T12:30:30.014Z,2.26
2023-01-23T12:33:50.177Z,2.26
2023-01-23T12:36:48.579Z,2.20
2023-01-23T12:39:42.491Z,2.18
2023-01-23T12:42:13.350Z,2.23
2023-01-23T12:44:56.854Z,2.23
2023-01-23T12:47:28.672Z,2.30
2023-01-23T12:50:25.092Z,2.31
2023-01-23T12:52:57.674Z,2.26
2023-01-23T12:55:29.458Z,2.25
2023-01-23T12:58:08.371Z,2.19
2023-01-23T13:00:58.766Z,2.17
2023-01-23T13:03:55.839Z,2.21
2023-01-23T13:07:10.579Z,2.19
2023-01-23T13:09:51.681Z,2.21
2023-01-23T13:12:21.629Z,2.20
2023-01-23T13:15:13.804Z,2.05
2023-01-23T13:17:39.774Z,2.06
2023-01-23T13:20:50.537Z,2.04
2023-01-23T13:23:30.341Z,2.07
2023-01-23T13:26:15.196Z,2.11
2023-01-23T13:28:48.357Z,2.11
2023-01-23T13:31:30.218Z,2.17
2023-01-23T13:34:06.759Z,2.06
2023-01-23T13:36:37.471Z,2.14
2023-01-23T13:39:13.159Z,2.17
2023-01-23T13:41:39.612Z,2.21
2023-01-23T13:44:35.769Z,2.17
2023-01-23T14:24:55.085Z,2.21
2023-01-23T14:27:51.424Z,2.19
2023-01-23T14:30:24.742Z,2.16
2023-01-23T14:32:51.244Z,2.16
2023-01-23T14:35:29.456Z,2.17
2023-01-23T14:37:59.443Z,2.19
2023-01-23T14:40:28.769Z,2.14
2023-01-23T14:42:58.674Z,2.19
2023-01-23T14:45:28.757Z,2.15
2023-01-23T14:48:05.188Z,2.22
2023-01-23T14:50:32.471Z,2.20
2023-01-23T14:53:05.364Z,2.19
2023-01-23T14:55:36.016Z,2.21
2023-01-23T14:58:03.660Z,2.28
2023-01-23T15:00:30.552Z,2.30
2023-01-23T15:02:57.056Z,2.29
2023-01-23T15:05:26.743Z,2.26
2023-01-23T15:08:07.335Z,2.24
2023-01-23T15:10:40.831Z,2.25
2023-01-23T15:13:12.946Z,2.27
2023-01-23T15:15:44.754Z,2.20
2023-01-23T15:18:23.145Z,2.24
2023-01-23T15:21:02.902Z,2.22
2023-01-23T15:23:33.420Z,2.22
2023-01-23T15:26:21.638Z,2.23
2023-01-23T15:28:51.041Z,2.18
2023-01-23T15:31:23.316Z,2.18
2023-01-23T15:33:49.926Z,2.21
2023-01-23T15:36:28.199Z,2.23
2023-01-23T15:38:56.982Z,2.23
2023-01-23T15:41:42.630Z,2.21
2023-01-23T15:44:17.775Z,2.22
2023-01-23T15:46:44.417Z,2.22
2023-01-23T15:49:24.454Z,2.29
2023-01-23T15:51:51.689Z,2.27
2023-01-23T15:54:25.225Z,2.24
2023-01-23T15:57:05.620Z,2.21
2023-01-23T15:59:33.997Z,2.25
2023-01-23T16:02:00.542Z,2.22
2023-01-23T16:04:26.987Z,2.24
2023-01-23T16:06:53.440Z,2.16
2023-01-23T16:09:26.729Z,2.26
2023-01-23T16:11:53.294Z,2.21
2023-01-23T16:14:20.293Z,2.24
2023-01-23T16:16:46.871Z,2.21
2023-01-23T16:19:13.361Z,2.21
2023-01-23T16:21:42.204Z,2.22
2023-01-23T16:24:16.707Z,2.23
2023-01-23T16:26:43.264Z,2.22
2023-01-23T16:29:26.413Z,2.20
2023-01-23T16:31:53.480Z,2.22
2023-01-23T16:34:20.029Z,2.22
2023-01-23T16:36:46.849Z,2.27
2023-01-23T16:39:21.813Z,2.29
2023-01-23T16:41:49.083Z,2.26
2023-01-23T16:44:19.050Z,2.26
2023-01-23T16:46:46.095Z,2.30
2023-01-23T16:49:13.408Z,2.28
2023-01-23T16:51:41.886Z,2.20
2023-01-23T16:54:18.739Z,2.19
2023-01-23T16:56:46.021Z,2.16
2023-01-23T16:59:19.112Z,2.14
2023-01-23T17:01:48.489Z,2.16
2023-01-23T17:04:18.044Z,2.15
2023-01-23T17:06:44.836Z,2.09
2023-01-23T17:09:12.626Z,2.08
2023-01-23T17:11:41.751Z,2.06
2023-01-23T17:14:16.773Z,2.12
2023-01-23T17:16:43.453Z,1.99
2023-01-23T17:19:17.403Z,2.05
2023-01-23T17:21:44.387Z,1.92
2023-01-23T17:24:15.510Z,1.95
2023-01-23T17:26:42.305Z,1.97
2023-01-23T17:29:08.718Z,1.92
2023-01-23T17:31:35.270Z,1.90
2023-01-23T17:34:03.049Z,1.94
2023-01-23T17:36:29.587Z,1.96
2023-01-23T17:38:57.977Z,1.92
2023-01-23T17:41:24.461Z,1.81
2023-01-23T17:43:52.633Z,1.81
2023-01-23T17:46:31.166Z,1.88
2023-01-23T17:48:57.588Z,1.74
2023-01-23T17:51:25.781Z,1.72
2023-01-23T17:53:52.569Z,1.65
2023-01-23T17:56:19.088Z,1.67
2023-01-23T17:58:45.621Z,1.58
2023-01-23T18:01:17.825Z,1.59
2023-01-23T18:03:44.863Z,1.57
2023-01-23T18:06:11.349Z,1.55
2023-01-23T18:08:42.199Z,1.49
2023-01-23T18:11:16.887Z,1.53
2023-01-23T18:13:53.562Z,1.47
2023-01-23T18:16:24.613Z,1.53
2023-01-23T18:18:58.285Z,1.49
2023-01-23T18:21:25.236Z,1.51
2023-01-23T18:23:51.927Z,1.52
2023-01-23T18:26:36.645Z,1.52
2023-01-23T18:29:15.554Z,1.51
2023-01-23T18:32:15.182Z,1.51
2023-01-23T18:35:14.178Z,1.58
2023-01-23T18:38:15.751Z,1.50
2023-01-23T18:40:49.268Z,1.40
2023-01-23T18:43:15.573Z,1.45
2023-01-23T18:45:42.250Z,1.45
2023-01-23T18:48:24.666Z,1.41
2023-01-23T18:51:21.369Z,1.44
2023-01-23T18:54:09.767Z,1.43
2023-01-23T18:56:39.420Z,1.48
2023-01-23T18:59:39.649Z,1.48
2023-01-23T19:02:30.987Z,1.53
2023-01-23T19:05:09.978Z,1.45
2023-01-23T19:07:39.757Z,1.50
2023-01-23T19:10:07.348Z,1.52
2023-01-23T19:12:44.649Z,1.56
2023-01-23T19:15:35.219Z,1.57
2023-01-23T19:18:39.201Z,1.58
2023-01-23T19:21:20.866Z,1.61
2023-01-23T19:23:58.297Z,1.65
2023-01-23T19:26:34.254Z,1.61
2023-01-23T19:29:19.332Z,1.71
2023-01-23T19:32:03.104Z,1.69
2023-01-23T19:34:31.054Z,1.74
2023-01-23T19:36:57.523Z,1.79
2023-01-23T19:39:23.930Z,1.85
2023-01-23T19:41:50.726Z,1.81
2023-01-23T19:44:18.706Z,1.78
2023-01-23T19:46:45.999Z,1.74
2023-01-23T19:49:13.658Z,1.73
2023-01-23T19:51:40.484Z,1.80
2023-01-23T19:54:09.356Z,1.80
2023-01-23T19:56:36.398Z,1.76
2023-01-23T19:59:03.013Z,1.84
2023-01-23T20:01:49.937Z,1.85
2023-01-23T20:04:19.909Z,1.80
2023-01-23T20:06:46.375Z,1.75
2023-01-23T20:09:14.591Z,1.83
2023-01-23T20:11:41.992Z,1.74
2023-01-23T20:14:08.482Z,1.80
2023-01-23T20:16:35.059Z,1.80
2023-01-23T20:19:01.481Z,1.74
2023-01-23T20:21:27.934Z,1.79
2023-01-23T20:23:55.868Z,1.69
2023-01-23T20:26:23.129Z,1.74
2023-01-23T20:28:53.123Z,1.77
2023-01-23T20:31:19.977Z,1.75
2023-01-23T20:33:46.439Z,1.78
2023-01-23T20:36:13.816Z,1.77
2023-01-23T20:38:40.796Z,1.79
2023-01-23T20:41:12.822Z,1.84
2023-01-23T20:43:39.611Z,1.79
2023-01-23T20:46:07.141Z,1.79
2023-01-23T20:48:37.769Z,1.78
2023-01-23T20:51:06.060Z,1.81
2023-01-23T20:53:34.800Z,1.80
2023-01-23T20:56:07.968Z,1.81
2023-01-23T20:58:54.196Z,1.85
2023-01-23T21:01:23.586Z,1.79
2023-01-23T21:03:50.431Z,1.83
2023-01-23T21:06:17.669Z,1.88
2023-01-23T21:08:44.434Z,1.91
2023-01-23T21:11:16.450Z,1.85
2023-01-23T21:13:44.069Z,1.89
2023-01-23T21:16:14.866Z,1.92
2023-01-23T21:18:44.713Z,1.82
2023-01-23T21:21:13.381Z,1.89
2023-01-23T21:23:39.810Z,1.85
2023-01-23T21:26:06.516Z,1.87
2023-01-23T21:28:35.444Z,1.88
2023-01-23T21:31:16.623Z,1.90
2023-01-23T21:33:44.082Z,1.87
2023-01-23T21:36:11.652Z,1.97
2023-01-23T21:38:38.547Z,1.94
2023-01-23T21:41:05.292Z,1.91
2023-01-23T21:43:31.729Z,1.97
2023-01-23T21:45:58.637Z,1.89
2023-01-23T21:48:25.324Z,1.90
2023-01-23T21:50:51.771Z,1.92
2023-01-23T21:53:18.225Z,1.92
2023-01-23T21:55:44.637Z,1.94
2023-01-23T21:58:11.012Z,1.93
2023-01-23T22:00:56.224Z,1.91
2023-01-23T22:03:22.601Z,2.01
2023-01-23T22:05:49.190Z,1.89
2023-01-23T22:08:15.620Z,1.95
2023-01-23T22:10:42.046Z,1.92
2023-01-23T22:13:08.453Z,1.93
2023-01-23T22:15:34.942Z,1.98
2023-01-23T22:18:01.366Z,1.93
2023-01-23T22:20:27.774Z,1.92
2023-01-23T22:22:54.174Z,1.95
2023-01-23T22:25:21.802Z,1.97
2023-01-23T22:27:48.420Z,1.97
2023-01-23T22:30:14.910Z,1.95
2023-01-23T22:32:41.400Z,1.93
2023-01-23T22:35:09.271Z,1.99
2023-01-23T22:37:35.763Z,1.96
2023-01-23T22:40:02.416Z,1.95
2023-01-23T22:42:28.852Z,1.96
2023-01-23T22:44:55.326Z,1.97
2023-01-23T22:47:21.751Z,1.97
2023-01-23T22:49:48.151Z,1.95
2023-01-23T22:52:15.235Z,1.96
2023-01-23T22:54:41.673Z,1.92
2023-01-23T22:57:08.140Z,1.93
2023-01-23T22:59:34.548Z,1.93
2023-01-23T23:02:00.972Z,1.94
2023-01-23T23:04:27.380Z,1.96
2023-01-23T23:06:54.020Z,1.98
2023-01-23T23:09:20.434Z,1.98
2023-01-23T23:11:49.976Z,1.99
2023-01-23T23:14:16.407Z,1.95
2023-01-23T23:16:42.967Z,1.95
2023-01-23T23:19:09.745Z,1.97
2023-01-23T23:21:36.985Z,1.98
2023-01-23T23:24:06.224Z,1.96
2023-01-23T23:26:33.113Z,1.97
2023-01-23T23:29:00.426Z,2.00
2023-01-23T23:31:26.940Z,1.97
2023-01-23T23:33:53.542Z,1.99
2023-01-23T23:36:20.201Z,1.99
2023-01-23T23:38:46.676Z,2.02
2023-01-23T23:41:14.557Z,1.96
2023-01-23T23:43:41.453Z,2.00
2023-01-23T23:46:09.566Z,2.01
2023-01-23T23:48:37.165Z,2.04
2023-01-23T23:51:08.781Z,2.02
2023-01-23T23:53:35.744Z,2.08
2023-01-23T23:56:02.223Z,2.07
2023-01-23T23:58:29.221Z,2.04
